createdAt,value
2023-03-12T00:00:20.270Z,-2.59
2023-03-12T00:02:47.355Z,-2.96
2023-03-12T00:05:14.284Z,-2.81
2023-03-12T00:07:41.094Z,-2.94
2023-03-12T00:10:09.092Z,-2.97
2023-03-12T00:12:36.040Z,-3.19
2023-03-12T00:15:03.284Z,-3.03
2023-03-12T00:17:30.365Z,-3.20
2023-03-12T00:19:58.011Z,-3.14
2023-03-12T00:22:25.936Z,-3.02
2023-03-12T00:24:56.814Z,-3.35
2023-03-12T00:27:24.664Z,-2.93
2023-03-12T00:29:51.456Z,-2.67
2023-03-12T00:32:18.389Z,-2.76
2023-03-12T00:34:50.475Z,-2.96
2023-03-12T00:37:17.231Z,-3.01
2023-03-12T00:39:44.707Z,-3.03
2023-03-12T00:42:15.034Z,-3.20
2023-03-12T00:44:41.827Z,-3.15
2023-03-12T00:47:08.772Z,-3.01
2023-03-12T00:49:35.534Z,-3.17
2023-03-12T00:52:03.081Z,-3.20
2023-03-12T00:54:31.462Z,-3.14
2023-03-12T00:56:58.338Z,-3.28
2023-03-12T00:59:27.122Z,-3.07
2023-03-12T01:03:31.670Z,-3.44
2023-03-12T01:05:58.722Z,-3.33
2023-03-12T01:08:26.451Z,-2.99
2023-03-12T01:10:53.562Z,-2.76
2023-03-12T01:13:20.762Z,-2.63
2023-03-12T01:15:47.896Z,-2.75
2023-03-12T01:18:14.810Z,-3.10
2023-03-12T01:20:41.643Z,-3.21
2023-03-12T01:23:09.801Z,-3.27
2023-03-12T01:25:37.767Z,-3.44
2023-03-12T01:28:04.857Z,-3.15
2023-03-12T01:30:32.197Z,-3.30
2023-03-12T01:33:00.297Z,-3.32
2023-03-12T01:35:27.242Z,-3.54
2023-03-12T01:37:56.143Z,-3.21
2023-03-12T01:40:26.303Z,-3.47
2023-03-12T01:42:58.252Z,-3.48
2023-03-12T01:46:06.246Z,-3.14
2023-03-12T01:48:41.677Z,-2.90
2023-03-12T01:51:12.774Z,-2.60
2023-03-12T01:53:41.944Z,-2.47
2023-03-12T01:56:21.522Z,-2.51
2023-03-12T01:58:53.280Z,-2.59
2023-03-12T02:01:21.883Z,-2.88
2023-03-12T02:04:20.599Z,-3.15
2023-03-12T02:07:17.880Z,-3.44
2023-03-12T02:09:50.002Z,-3.16
2023-03-12T02:12:17.921Z,-2.99
2023-03-12T02:14:45.827Z,-3.07
2023-03-12T02:17:13.594Z,-2.78
2023-03-12T02:20:00.261Z,-2.45
2023-03-12T02:22:29.558Z,-2.48
2023-03-12T02:24:56.353Z,-1.80
2023-03-12T02:27:28.155Z,-2.27
2023-03-12T02:29:55.088Z,-2.37
2023-03-12T02:32:24.548Z,-2.60
2023-03-12T02:34:51.659Z,-2.25
2023-03-12T02:37:19.334Z,-2.16
2023-03-12T02:39:55.086Z,-2.50
2023-03-12T02:42:24.550Z,-2.52
2023-03-12T02:44:51.811Z,-2.39
2023-03-12T02:47:21.591Z,-2.47
2023-03-12T02:49:48.734Z,-2.41
2023-03-12T02:52:15.725Z,-2.75
2023-03-12T02:54:42.944Z,-2.84
2023-03-12T02:57:11.016Z,-3.03
2023-03-12T02:59:38.587Z,-2.77
2023-03-12T03:02:09.913Z,-2.75
2023-03-12T03:04:36.969Z,-2.86
2023-03-12T03:07:04.823Z,-3.09
2023-03-12T03:09:32.366Z,-3.10
2023-03-12T03:12:00.898Z,-2.73
2023-03-12T03:14:29.842Z,-2.70
2023-03-12T03:16:56.662Z,-2.96
2023-03-12T03:19:24.098Z,-2.83
2023-03-12T03:21:51.120Z,-3.15
2023-03-12T03:24:18.247Z,-2.74
2023-03-12T03:26:45.059Z,-2.85
2023-03-12T03:29:12.266Z,-2.74
2023-03-12T03:31:39.715Z,-3.00
2023-03-12T03:34:06.799Z,-2.67
2023-03-12T03:36:36.803Z,-2.39
2023-03-12T03:39:09.160Z,-2.46
2023-03-12T03:41:37.684Z,-2.67
2023-03-12T03:44:06.903Z,-2.65
2023-03-12T03:46:35.852Z,-2.66
2023-03-12T03:49:06.400Z,-2.80
2023-03-12T03:51:34.382Z,-2.88
2023-03-12T03:54:06.689Z,-2.52
2023-03-12T03:56:34.116Z,-2.81
2023-03-12T03:59:05.147Z,-2.86
2023-03-12T04:01:35.912Z,-2.85
2023-03-12T04:04:03.605Z,-2.64
2023-03-12T04:06:34.555Z,-2.25
2023-03-12T04:09:03.289Z,-2.55
2023-03-12T04:11:35.272Z,-3.15
2023-03-12T04:14:07.955Z,-2.74
2023-03-12T04:16:38.212Z,-2.67
2023-03-12T04:19:05.713Z,-2.58
2023-03-12T04:21:32.812Z,-2.53
2023-03-12T04:24:00.869Z,-2.60
2023-03-12T04:26:32.794Z,-2.38
2023-03-12T04:29:01.288Z,-2.55
2023-03-12T04:31:29.422Z,-2.48
2023-03-12T04:33:56.624Z,-2.44
2023-03-12T04:36:25.322Z,-2.60
2023-03-12T04:38:54.152Z,-2.84
2023-03-12T04:41:26.265Z,-2.97
2023-03-12T04:43:59.727Z,-2.68
2023-03-12T04:46:27.989Z,-3.33
2023-03-12T04:48:55.501Z,-3.78
2023-03-12T04:51:22.570Z,-3.65
2023-03-12T04:53:49.966Z,-3.55
2023-03-12T04:56:16.903Z,-3.32
2023-03-12T04:58:47.142Z,-3.45
2023-03-12T05:01:26.042Z,-3.78
2023-03-12T05:03:53.750Z,-3.37
2023-03-12T05:06:22.292Z,-3.46
2023-03-12T05:08:50.635Z,-3.76
2023-03-12T05:11:19.555Z,-3.50
2023-03-12T05:13:48.331Z,-3.63
2023-03-12T05:16:16.658Z,-3.61
2023-03-12T05:18:45.745Z,-3.57
2023-03-12T05:21:19.555Z,-3.56
2023-03-12T05:23:49.054Z,-3.58
2023-03-12T05:26:21.512Z,-3.47
2023-03-12T05:28:49.309Z,-3.36
2023-03-12T05:31:18.526Z,-3.39
2023-03-12T05:33:45.695Z,-3.38
2023-03-12T05:36:14.480Z,-3.12
2023-03-12T05:38:46.494Z,-3.30
2023-03-12T05:41:29.518Z,-3.42
2023-03-12T05:44:01.204Z,-3.49
2023-03-12T05:46:35.756Z,-3.04
2023-03-12T05:49:03.576Z,-3.41
2023-03-12T05:51:33.165Z,-3.75
2023-03-12T05:54:02.052Z,-3.42
2023-03-12T05:56:29.017Z,-3.45
2023-03-12T05:58:56.753Z,-3.42
2023-03-12T06:01:28.152Z,-2.98
2023-03-12T06:04:00.975Z,-3.23
2023-03-12T06:06:32.982Z,-2.94
2023-03-12T06:09:01.909Z,-2.87
2023-03-12T06:11:30.608Z,-2.69
2023-03-12T06:14:01.824Z,-2.78
2023-03-12T06:16:30.921Z,-2.96
2023-03-12T06:19:03.383Z,-2.37
2023-03-12T06:21:36.398Z,-1.94
2023-03-12T06:24:06.607Z,-1.92
2023-03-12T06:26:42.365Z,-2.03
2023-03-12T06:29:12.295Z,-1.92
2023-03-12T06:31:44.352Z,-2.12
2023-03-12T06:34:11.895Z,-2.32
2023-03-12T06:36:39.733Z,-2.10
2023-03-12T06:39:09.113Z,-2.05
2023-03-12T06:41:38.367Z,-1.85
2023-03-12T06:44:08.446Z,-2.10
2023-03-12T06:46:35.902Z,-2.46
2023-03-12T06:49:04.132Z,-2.21
2023-03-12T06:51:36.901Z,-2.45
2023-03-12T06:54:05.996Z,-2.47
2023-03-12T06:56:33.583Z,-2.34
2023-03-12T06:59:00.625Z,-2.48
2023-03-12T07:01:28.873Z,-2.16
2023-03-12T07:03:56.453Z,-1.91
2023-03-12T07:06:37.867Z,-2.46
2023-03-12T07:09:05.608Z,-2.31
2023-03-12T07:11:35.517Z,-2.12
2023-03-12T07:14:03.753Z,-1.67
2023-03-12T07:16:31.452Z,-1.31
2023-03-12T07:18:59.440Z,-1.44
2023-03-12T07:21:27.372Z,-1.37
2023-03-12T07:23:55.001Z,-1.12
2023-03-12T07:26:22.138Z,-1.46
2023-03-12T07:28:50.662Z,-1.47
2023-03-12T07:31:17.959Z,-1.57
2023-03-12T07:33:46.048Z,-1.29
2023-03-12T07:36:14.986Z,-1.28
2023-03-12T07:38:43.092Z,-0.98
2023-03-12T07:41:10.996Z,-0.81
2023-03-12T07:43:47.318Z,-1.04
2023-03-12T07:46:17.316Z,-0.64
2023-03-12T07:48:47.736Z,-0.21
2023-03-12T07:51:14.884Z,-0.66
2023-03-12T07:53:44.818Z,-0.82
2023-03-12T07:56:11.908Z,-0.93
2023-03-12T07:58:39.841Z,-1.14
2023-03-12T08:01:09.164Z,-0.99
2023-03-12T08:03:36.658Z,-0.26
2023-03-12T08:06:05.827Z,-0.59
2023-03-12T08:08:36.271Z,-0.11
2023-03-12T08:11:05.637Z,-0.14
2023-03-12T08:13:32.943Z,-0.05
2023-03-12T08:16:00.755Z,-0.07
2023-03-12T08:18:28.526Z,0.06
2023-03-12T08:20:55.991Z,-0.43
2023-03-12T08:23:23.783Z,0.19
2023-03-12T08:25:51.679Z,0.25
2023-03-12T08:28:20.564Z,0.77
2023-03-12T08:30:55.542Z,0.72
2023-03-12T08:33:22.914Z,0.91
2023-03-12T08:35:50.720Z,0.70
2023-03-12T08:38:18.569Z,0.74
2023-03-12T08:40:46.116Z,1.13
2023-03-12T08:43:13.390Z,1.08
2023-03-12T08:45:40.727Z,1.07
2023-03-12T08:48:08.596Z,1.38
2023-03-12T08:50:38.536Z,1.39
2023-03-12T08:53:06.141Z,1.58
2023-03-12T08:55:33.450Z,1.63
2023-03-12T08:58:01.006Z,1.51
2023-03-12T09:00:29.406Z,1.67
2023-03-12T09:02:58.625Z,1.59
2023-03-12T09:05:30.056Z,2.27
2023-03-12T09:08:04.133Z,2.18
2023-03-12T09:10:34.819Z,2.29
2023-03-12T09:13:02.884Z,2.86
2023-03-12T09:15:30.775Z,2.39
2023-03-12T09:17:59.095Z,2.17
2023-03-12T09:20:26.945Z,2.08
2023-03-12T09:22:56.457Z,2.67
2023-03-12T09:25:24.758Z,2.37
2023-03-12T09:27:59.115Z,3.41
2023-03-12T09:30:28.439Z,2.90
2023-03-12T09:32:56.912Z,2.69
2023-03-12T09:35:24.777Z,3.11
2023-03-12T09:37:54.325Z,3.17
2023-03-12T09:40:25.961Z,3.35
2023-03-12T09:42:59.598Z,4.31
2023-03-12T09:45:30.552Z,4.68
2023-03-12T09:48:01.302Z,4.40
2023-03-12T09:50:33.848Z,3.89
2023-03-12T09:53:05.018Z,4.41
2023-03-12T09:55:37.678Z,4.26
2023-03-12T09:58:14.426Z,4.48
2023-03-12T10:00:41.432Z,3.77
2023-03-12T10:03:27.097Z,3.85
2023-03-12T10:06:22.002Z,3.88
2023-03-12T10:09:11.143Z,3.38
2023-03-12T10:11:57.145Z,3.45
2023-03-12T10:14:24.521Z,3.21
2023-03-12T10:17:10.768Z,3.13
2023-03-12T10:20:17.104Z,3.45
2023-03-12T10:22:52.742Z,3.34
2023-03-12T10:25:39.668Z,3.56
2023-03-12T10:28:49.964Z,3.35
2023-03-12T10:31:27.431Z,2.96
2023-03-12T10:34:00.008Z,3.42
2023-03-12T10:36:33.414Z,3.70
2023-03-12T10:39:01.308Z,3.96
2023-03-12T10:41:35.108Z,4.38
2023-03-12T10:44:07.939Z,3.76
2023-03-12T10:46:44.336Z,3.21
2023-03-12T10:49:31.987Z,3.12
2023-03-12T10:52:22.439Z,4.05
2023-03-12T10:54:53.013Z,4.07
2023-03-12T10:57:21.984Z,3.96
2023-03-12T10:59:55.057Z,4.09
2023-03-12T11:02:29.252Z,4.25
2023-03-12T11:05:03.549Z,4.71
2023-03-12T11:07:33.636Z,5.07
2023-03-12T11:10:07.694Z,6.20
2023-03-12T11:12:44.633Z,5.23
2023-03-12T11:15:25.924Z,5.23
2023-03-12T11:17:53.213Z,5.68
2023-03-12T11:20:30.379Z,5.67
2023-03-12T11:23:01.315Z,5.16
2023-03-12T11:25:29.947Z,5.54
2023-03-12T11:28:02.827Z,6.15
2023-03-12T11:34:37.862Z,5.52
2023-03-12T11:37:07.997Z,6.43
2023-03-12T11:39:53.682Z,5.11
2023-03-12T11:42:32.962Z,4.97
2023-03-12T11:45:45.593Z,5.61
2023-03-12T11:48:30.013Z,6.01
2023-03-12T11:51:16.745Z,5.63
2023-03-12T11:54:05.998Z,6.21
2023-03-12T11:57:08.726Z,5.85
2023-03-12T12:00:00.930Z,6.48
2023-03-12T12:02:46.222Z,5.83
2023-03-12T12:05:41.602Z,5.52
2023-03-12T12:08:29.546Z,6.08
2023-03-12T12:11:08.643Z,5.21
2023-03-12T12:13:49.635Z,5.79
2023-03-12T12:16:40.483Z,5.81
2023-03-12T12:19:20.303Z,6.00
2023-03-12T12:22:15.144Z,5.80
2023-03-12T12:24:51.544Z,5.42
2023-03-12T12:27:24.471Z,5.53
2023-03-12T12:30:31.042Z,5.47
2023-03-12T12:33:44.359Z,4.93
2023-03-12T12:36:11.989Z,5.72
2023-03-12T12:39:30.471Z,5.90
2023-03-12T12:46:17.489Z,5.48
2023-03-12T12:48:49.014Z,5.31
2023-03-12T12:51:20.797Z,5.04
2023-03-12T12:54:16.562Z,5.03
2023-03-12T12:56:58.058Z,5.13
2023-03-12T12:59:41.329Z,5.08
2023-03-12T13:02:21.597Z,5.38
2023-03-12T13:04:49.950Z,4.84
2023-03-12T13:07:17.464Z,5.18
2023-03-12T13:09:57.130Z,5.26
2023-03-12T13:12:29.939Z,5.39
2023-03-12T13:14:57.821Z,5.64
2023-03-12T13:17:55.907Z,5.13
2023-03-12T13:20:31.637Z,4.93
2023-03-12T13:22:58.837Z,5.33
2023-03-12T13:25:50.024Z,4.97
2023-03-12T13:28:26.749Z,4.96
2023-03-12T13:30:58.083Z,5.01
2023-03-12T13:33:49.264Z,4.92
2023-03-12T13:36:16.584Z,4.68
2023-03-12T13:39:00.881Z,4.95
2023-03-12T13:41:41.380Z,5.00
2023-03-12T13:44:24.446Z,4.36
2023-03-12T13:47:10.871Z,4.80
2023-03-12T13:49:55.706Z,4.58
2023-03-12T13:52:22.729Z,5.00
2023-03-12T13:55:25.558Z,4.20
2023-03-12T13:57:59.023Z,4.76
2023-03-12T14:00:56.579Z,4.17
2023-03-12T14:03:33.875Z,4.41
2023-03-12T14:06:21.940Z,4.47
2023-03-12T14:09:05.014Z,4.13
2023-03-12T14:11:34.062Z,4.08
2023-03-12T14:14:38.724Z,4.41
2023-03-12T14:17:06.077Z,4.63
2023-03-12T14:19:46.412Z,4.42
2023-03-12T14:22:14.151Z,4.62
2023-03-12T14:24:49.771Z,4.55
2023-03-12T14:27:22.546Z,4.59
2023-03-12T14:30:09.762Z,5.28
2023-03-12T14:32:38.051Z,4.46
2023-03-12T14:35:19.259Z,4.71
2023-03-12T14:38:03.685Z,4.34
2023-03-12T14:40:37.641Z,4.07
2023-03-12T14:43:24.052Z,4.48
2023-03-12T14:45:58.713Z,4.29
2023-03-12T14:48:35.602Z,4.24
2023-03-12T14:51:06.052Z,4.09
2023-03-12T14:53:35.946Z,4.55
2023-03-12T14:56:05.214Z,4.45
2023-03-12T14:58:42.726Z,4.01
2023-03-12T15:01:14.260Z,4.29
2023-03-12T15:03:48.568Z,4.22
2023-03-12T15:06:23.324Z,4.14
2023-03-12T15:08:51.096Z,4.04
2023-03-12T15:11:27.423Z,4.42
2023-03-12T15:14:01.439Z,4.38
2023-03-12T15:16:31.720Z,4.13
2023-03-12T15:19:04.363Z,3.90
2023-03-12T15:21:37.611Z,4.00
2023-03-12T15:24:07.098Z,3.81
2023-03-12T15:26:38.390Z,3.93
2023-03-12T15:29:28.147Z,3.85
2023-03-12T15:32:01.103Z,3.94
2023-03-12T15:34:39.961Z,4.29
2023-03-12T15:37:29.765Z,4.03
2023-03-12T15:39:57.276Z,3.77
2023-03-12T15:42:26.970Z,4.03
2023-03-12T15:45:04.720Z,4.08
2023-03-12T15:47:40.402Z,4.69
2023-03-12T15:50:22.985Z,4.91
2023-03-12T15:53:06.511Z,4.27
2023-03-12T15:55:35.854Z,4.34
2023-03-12T15:58:23.018Z,4.34
2023-03-12T16:00:52.783Z,4.45
2023-03-12T16:03:22.915Z,4.41
2023-03-12T16:05:51.434Z,4.51
2023-03-12T16:08:29.576Z,4.36
2023-03-12T16:10:56.771Z,4.15
2023-03-12T16:13:31.336Z,4.14
2023-03-12T16:15:59.013Z,4.00
2023-03-12T16:18:26.148Z,4.10
2023-03-12T16:20:54.416Z,4.23
2023-03-12T16:23:21.998Z,3.88
2023-03-12T16:25:53.017Z,3.44
2023-03-12T16:28:25.542Z,3.45
2023-03-12T16:30:53.770Z,3.47
2023-03-12T16:33:23.682Z,2.93
2023-03-12T16:35:52.798Z,3.17
2023-03-12T16:38:20.039Z,2.90
2023-03-12T16:40:49.860Z,3.22
2023-03-12T16:43:25.726Z,3.07
2023-03-12T16:45:54.378Z,2.86
2023-03-12T16:48:24.672Z,3.30
2023-03-12T16:50:54.778Z,3.11
2023-03-12T16:53:22.919Z,3.34
2023-03-12T16:55:55.557Z,3.42
2023-03-12T16:58:24.281Z,3.78
2023-03-12T17:00:53.644Z,3.65
2023-03-12T17:03:41.095Z,3.78
2023-03-12T17:06:13.191Z,3.63
2023-03-12T17:08:40.367Z,3.17
2023-03-12T17:11:17.767Z,3.36
2023-03-12T17:13:47.540Z,3.19
2023-03-12T17:16:14.912Z,3.18
2023-03-12T17:18:42.334Z,2.97
2023-03-12T17:21:21.312Z,2.99
2023-03-12T17:23:50.496Z,3.03
2023-03-12T17:26:18.843Z,3.11
2023-03-12T17:28:45.755Z,2.74
2023-03-12T17:31:13.189Z,2.60
2023-03-12T17:33:40.415Z,2.98
2023-03-12T17:36:09.578Z,2.85
2023-03-12T17:38:37.520Z,2.79
2023-03-12T17:41:13.839Z,2.86
2023-03-12T17:43:50.724Z,3.17
2023-03-12T17:46:17.718Z,3.06
2023-03-12T17:48:46.879Z,3.10
2023-03-12T17:51:14.776Z,2.97
2023-03-12T17:53:42.321Z,2.98
2023-03-12T17:56:14.353Z,2.90
2023-03-12T17:58:45.164Z,3.24
2023-03-12T18:01:13.507Z,3.01
2023-03-12T18:03:44.233Z,3.00
2023-03-12T18:06:12.328Z,3.01
2023-03-12T18:08:40.712Z,2.96
2023-03-12T18:11:09.866Z,3.01
2023-03-12T18:13:39.355Z,3.14
2023-03-12T18:16:08.389Z,3.08
2023-03-12T18:18:35.736Z,2.91
2023-03-12T18:21:03.025Z,2.77
2023-03-12T18:23:32.181Z,2.99
2023-03-12T18:26:02.197Z,2.79
2023-03-12T18:28:29.502Z,2.84
2023-03-12T18:30:56.595Z,2.92
2023-03-12T18:33:23.561Z,2.93
2023-03-12T18:35:52.530Z,2.73
2023-03-12T18:38:21.698Z,2.82
2023-03-12T18:40:50.061Z,2.73
2023-03-12T18:43:16.981Z,2.79
2023-03-12T18:45:44.172Z,2.90
2023-03-12T18:48:11.525Z,3.15
2023-03-12T18:50:38.906Z,3.20
2023-03-12T18:53:05.824Z,3.05
2023-03-12T18:55:33.039Z,3.27
2023-03-12T18:58:02.508Z,3.38
2023-03-12T19:00:29.861Z,3.51
2023-03-12T19:02:57.023Z,3.31
2023-03-12T19:05:24.010Z,3.09
2023-03-12T19:07:51.096Z,3.39
2023-03-12T19:10:23.779Z,3.35
2023-03-12T19:12:54.069Z,3.34
2023-03-12T19:15:24.388Z,3.35
2023-03-12T19:17:51.622Z,3.36
2023-03-12T19:20:19.439Z,3.55
2023-03-12T19:22:48.935Z,3.86
2023-03-12T19:25:18.063Z,3.59
2023-03-12T19:27:45.101Z,3.20
2023-03-12T19:30:13.831Z,3.54
2023-03-12T19:32:44.432Z,3.48
2023-03-12T19:35:15.669Z,3.63
2023-03-12T19:37:42.695Z,3.68
2023-03-12T19:40:10.888Z,3.56
2023-03-12T19:42:37.847Z,3.61
2023-03-12T19:45:05.345Z,3.53
2023-03-12T19:47:36.053Z,3.56
2023-03-12T19:50:07.371Z,3.57
2023-03-12T19:52:36.974Z,3.66
2023-03-12T19:55:05.600Z,3.68
2023-03-12T19:57:34.235Z,3.90
2023-03-12T20:00:01.668Z,3.84
2023-03-12T20:02:31.377Z,4.03
2023-03-12T20:04:58.288Z,4.12
2023-03-12T20:07:26.500Z,3.83
2023-03-12T20:09:53.471Z,3.93
2023-03-12T20:12:20.486Z,3.98
2023-03-12T20:14:50.676Z,4.14
2023-03-12T20:17:17.885Z,4.01
2023-03-12T20:19:44.991Z,4.46
2023-03-12T20:22:15.414Z,4.17
2023-03-12T20:24:42.677Z,4.26
2023-03-12T20:27:09.810Z,4.29
2023-03-12T20:29:36.914Z,4.21
2023-03-12T20:32:04.002Z,3.92
2023-03-12T20:34:30.786Z,4.49
2023-03-12T20:36:57.986Z,4.06
2023-03-12T20:39:25.078Z,4.37
2023-03-12T20:41:51.904Z,3.96
2023-03-12T20:44:18.878Z,4.12
2023-03-12T20:46:46.591Z,4.10
2023-03-12T20:49:14.094Z,4.06
2023-03-12T20:51:42.767Z,4.22
2023-03-12T20:54:09.941Z,4.18
2023-03-12T20:56:38.820Z,4.19
2023-03-12T20:59:05.874Z,4.32
2023-03-12T21:01:33.604Z,4.19
2023-03-12T21:04:00.657Z,4.35
2023-03-12T21:06:27.711Z,4.14
2023-03-12T21:08:59.184Z,4.19
2023-03-12T21:11:31.283Z,4.59
2023-03-12T21:13:58.252Z,4.61
2023-03-12T21:16:25.577Z,4.48
2023-03-12T21:19:01.599Z,4.85
2023-03-12T21:21:35.304Z,4.47
2023-03-12T21:24:02.293Z,4.79
2023-03-12T21:26:29.308Z,4.51
2023-03-12T21:28:56.573Z,4.72
2023-03-12T21:31:29.327Z,4.68
2023-03-12T21:34:00.696Z,4.49
2023-03-12T21:36:31.592Z,4.67
2023-03-12T21:39:01.236Z,4.78
2023-03-12T21:41:28.037Z,4.95
2023-03-12T21:43:55.089Z,4.94
2023-03-12T21:46:27.659Z,5.23
2023-03-12T21:48:54.642Z,4.92
2023-03-12T21:51:22.900Z,4.83
2023-03-12T21:53:54.656Z,5.79
2023-03-12T21:56:22.393Z,5.64
2023-03-12T21:58:49.243Z,5.68
2023-03-12T22:01:18.288Z,5.75
2023-03-12T22:03:46.836Z,5.76
2023-03-12T22:06:16.275Z,5.78
2023-03-12T22:08:44.302Z,5.71
2023-03-12T22:11:11.726Z,5.69
2023-03-12T22:13:39.876Z,5.78
2023-03-12T22:16:08.513Z,5.88
2023-03-12T22:18:41.228Z,5.67
2023-03-12T22:21:11.004Z,5.67
2023-03-12T22:23:37.750Z,5.63
2023-03-12T22:26:06.571Z,5.69
2023-03-12T22:28:33.638Z,5.79
2023-03-12T22:31:02.595Z,5.60
2023-03-12T22:33:29.859Z,5.48
2023-03-12T22:35:57.432Z,5.40
2023-03-12T22:38:25.130Z,5.45
2023-03-12T22:40:53.752Z,5.18
2023-03-12T22:43:24.905Z,5.13
2023-03-12T22:45:55.360Z,5.26
2023-03-12T22:48:22.404Z,5.48
2023-03-12T22:50:56.561Z,5.77
2023-03-12T22:53:26.879Z,5.56
2023-03-12T22:56:02.328Z,5.41
2023-03-12T22:58:30.134Z,5.40
2023-03-12T23:01:05.743Z,5.57
2023-03-12T23:03:34.052Z,5.50
2023-03-12T23:06:02.114Z,5.73
2023-03-12T23:08:30.197Z,5.59
2023-03-12T23:11:00.142Z,5.72
2023-03-12T23:13:29.545Z,5.32
2023-03-12T23:16:05.366Z,5.52
2023-03-12T23:18:33.585Z,5.48
2023-03-12T23:21:10.541Z,5.55
2023-03-12T23:23:43.508Z,5.50
2023-03-12T23:26:16.781Z,5.78
2023-03-12T23:28:46.931Z,5.58
2023-03-12T23:31:15.809Z,5.48
2023-03-12T23:33:44.007Z,5.40
2023-03-12T23:36:13.764Z,5.83
2023-03-12T23:38:41.442Z,5.66
2023-03-12T23:41:12.729Z,5.68
2023-03-12T23:43:39.799Z,5.58
2023-03-12T23:46:08.900Z,5.79
2023-03-12T23:48:37.336Z,5.82
2023-03-12T23:51:14.860Z,5.66
2023-03-12T23:53:44.310Z,5.71
2023-03-12T23:56:19.227Z,5.89
2023-03-12T23:58:46.686Z,5.95
